Melbourne Airport, Victoria

2:27 PM AEST on May 28, 2015 (GMT +1000)
Gladstone Park, Victoria, Australia | | Change Station
CLOSE
Current Station
Personal Weather Station
Location: Gladstone Park, VIC
Elevation: 340 ft
Nearby Weather Stations

Elev 340 ft 37.69 °S, 144.89 °E | Updated 48 seconds ago

Clear
Clear
64.3 °F
Feels Like 64.3 °F
N
7.0
Wind Variable Wind from NNW
Gusts 15.0 mph

Today
High -- | Low -- °F
--% Chance of Precip.
Yesterday
High -- | Low -- °F
Precip. -- in
7:23 AM 5:12 PM
Waxing Gibbous, 72% visible
Pressure 29.95 in
Visibility 6.2 miles
Clouds
Dew Point 54 °F
Humidity 69%
Rainfall 0.00 in
Snow Depth Not available.
UV Not available.
Pollen Not available.
Air Quality Not available.
Flu Activity Not available.
SPECI YMEN 280409Z AUTO 35015G25KT 9999 // NCD 18/11 Q1014

More Conditions Fewer Conditions

Pressure 29.95 in
Visibility 6.2 miles
Clouds
Dew Point 54 °F
Humidity 69%
Rainfall 0.00 in
Snow Depth Not available.
UV Not available.
Pollen Not available.
Air Quality Not available.
Flu Activity Not available.
SPECI YMEN 280409Z AUTO 35015G25KT 9999 // NCD 18/11 Q1014

More Conditions Fewer Conditions

10-Day Weather Forecast

Almanac

Astronomy

May. 28, 2015 Rise Set
Actual Time
Civil Twilight
Nautical Twilight
Astronomical Twilight
Moon
Length of Visible Light
Length of Day
Tomorrow will be .
, % of the Moon is Illuminated

Today's Extremes

Country Highs Country Lows

Community

WunderPhotos

Upload Photos

1,824,918 photos uploaded!

WunderBlogs® & News

Nearby

Air Quality

  Air Quality AQ Index Pollutant
Not available.

Snow Depth

Station Depth Elevation

Earthquake Activity

City Distance Mag. Time & Date
Minimum magnitude displayed is 2.5.

Coastal Water Temperatures

Place Temperature

Stations

Nearby Weather Stations

Station Location Temp. Windchill Dew Point Humidity Wind Precip. Elev Updated Type